Miccosukee, Florida
Current Conditions -  °F | °C
As of 1:53 PM on Wednesday 28 Jan 2015 (Local Time) from KTLH Reporting Station
Clear Clear  
Wind Chill: 53°   Ceiling: Unl
Heat Index: 53°   Visibility: 10mi
Dew Point: 30°   Wind: 7mph
Humidity: 41%   Direction: 20°NNE
Pressure: 30.25"   Gusts: NA
Location:  30.59°N, 84.04°W
Report Text: KTLH 281753Z 02006KT 10SM CLR 12/M01 A3025 RMK AO2 SLP245 T01171011 10117 21011 58008 $
Loading
Personal Weather Stations






























Interactive Weather Map New forecast layout! Learn more

10-Day Weather Forecast

Advertisements
Track Severe Weather on mobile